Time;durP1;ratioP1;P1;durP2;ratioP2;P2;SDS_P1;SDS_P2;PMS_P1;PMS_P2;Temp;Humidity;BMP_temperature;BMP_pressure;BME280_temperature;BME280_humidity;BME280_pressure;Samples;Min_cycle;Max_cycle;Signal;HPM_P1;HPM_P2
2021/05/15 00:41:25;;;;;;;1.77;1.55;;;11.00;90.50;;;;;;5175284;23;20244;-89
2021/05/15 00:44:10;;;;;;;2.53;1.30;;;10.80;92.10;;;;;;5029506;28;20249;-90
2021/05/15 00:46:37;;;;;;;1.45;1.13;;;10.70;93.20;;;;;;5049098;28;20578;-89
2021/05/15 00:52:27;;;;;;;1.40;1.30;;;10.70;94.10;;;;;;5036742;28;20623;-89
2021/05/15 00:54:55;;;;;;;1.48;1.30;;;10.60;93.20;;;;;;5036906;28;20202;-90
2021/05/15 00:57:24;;;;;;;1.23;1.13;;;10.60;93.20;;;;;;5048677;28;20229;-89
2021/05/15 00:59:50;;;;;;;1.42;1.20;;;10.60;93.20;;;;;;5037867;28;20206;-90
2021/05/15 01:02:24;;;;;;;1.10;1.00;;;10.60;93.50;;;;;;5026759;28;20226;-90
2021/05/15 01:04:50;;;;;;;2.55;1.42;;;10.50;93.80;;;;;;5054305;28;20240;-89
2021/05/15 01:07:17;;;;;;;3.50;1.30;;;10.50;94.10;;;;;;5048897;28;20214;-89
2021/05/15 01:09:44;;;;;;;2.05;1.20;;;10.50;94.10;;;;;;5047343;28;20208;-90
2021/05/15 01:12:10;;;;;;;2.88;1.23;;;10.50;94.00;;;;;;5051136;28;20234;-90
2021/05/15 01:17:20;;;;;;;1.40;1.30;;;10.50;94.20;;;;;;5049623;28;20781;-91
2021/05/15 01:19:46;;;;;;;1.77;1.20;;;10.40;94.60;;;;;;5056128;28;20214;-89
2021/05/15 01:24:56;;;;;;;1.80;1.05;;;10.50;95.00;;;;;;5045930;28;20765;-90
2021/05/15 01:27:23;;;;;;;1.80;1.30;;;10.60;94.80;;;;;;5047720;28;20230;-89
2021/05/15 01:29:51;;;;;;;2.70;1.33;;;10.50;94.70;;;;;;5031131;28;20195;-89
2021/05/15 01:32:18;;;;;;;1.85;1.20;;;10.60;95.10;;;;;;5026744;28;20240;-90
2021/05/15 01:34:45;;;;;;;2.45;1.40;;;10.60;94.10;;;;;;5053277;28;20206;-91
2021/05/15 01:37:11;;;;;;;1.77;1.38;;;10.50;93.70;;;;;;5054165;28;20217;-89
2021/05/15 01:39:46;;;;;;;3.28;1.40;;;10.50;94.10;;;;;;5042862;28;20218;-89
2021/05/15 01:42:13;;;;;;;1.48;1.38;;;10.50;94.50;;;;;;5029238;28;20317;-90
2021/05/15 01:44:41;;;;;;;1.58;1.20;;;10.60;94.50;;;;;;5049027;28;20236;-89
2021/05/15 01:47:09;;;;;;;3.47;1.20;;;10.50;94.50;;;;;;5049976;28;20266;-89
2021/05/15 01:50:17;;;;;;;1.95;1.10;;;10.50;94.20;;;;;;5060084;28;20198;-89
2021/05/15 01:52:44;;;;;;;1.30;1.17;;;10.50;93.80;;;;;;5064481;28;20202;-89
2021/05/15 01:55:19;;;;;;;0.90;0.90;;;10.50;94.00;;;;;;5055259;28;20198;-89
2021/05/15 01:57:47;;;;;;;1.90;0.93;;;10.40;93.50;;;;;;5048682;28;20209;-90
2021/05/15 02:00:30;;;;;;;1.17;1.08;;;10.50;93.10;;;;;;5052592;28;20192;-89
2021/05/15 02:02:56;;;;;;;2.13;1.08;;;10.40;93.60;;;;;;5050327;28;20230;-89
2021/05/15 02:05:22;;;;;;;2.22;1.30;;;10.40;94.00;;;;;;5049770;28;20202;-90
2021/05/15 02:07:49;;;;;;;1.70;1.00;;;10.40;93.60;;;;;;5032905;28;20241;-89
2021/05/15 02:12:57;;;;;;;1.83;1.10;;;10.40;93.10;;;;;;5049279;28;20221;-91
2021/05/15 02:15:24;;;;;;;1.70;1.00;;;10.40;93.50;;;;;;5045446;28;20700;-89
2021/05/15 02:17:50;;;;;;;1.52;1.17;;;10.40;93.70;;;;;;5023836;28;20234;-89
2021/05/15 02:20:17;;;;;;;2.10;1.10;;;10.30;94.40;;;;;;5034760;28;20206;-89
2021/05/15 02:22:43;;;;;;;1.70;1.10;;;10.20;95.10;;;;;;5047157;28;20252;-89
2021/05/15 02:25:11;;;;;;;3.35;1.10;;;10.20;95.60;;;;;;5050292;28;20206;-89
2021/05/15 02:27:39;;;;;;;1.02;0.93;;;10.20;95.80;;;;;;5044415;28;20242;-90
2021/05/15 02:30:07;;;;;;;1.88;1.00;;;10.20;95.80;;;;;;5059063;28;20202;-89
2021/05/15 02:32:34;;;;;;;3.35;0.98;;;10.10;95.70;;;;;;5038429;28;20229;-91
2021/05/15 02:35:00;;;;;;;2.85;1.00;;;10.10;96.00;;;;;;5036325;28;20210;-90
2021/05/15 02:37:27;;;;;;;1.20;1.10;;;10.00;96.30;;;;;;5032041;28;20214;-90
2021/05/15 02:39:53;;;;;;;1.25;1.00;;;9.90;97.20;;;;;;5021704;28;20680;-89
2021/05/15 02:42:19;;;;;;;2.85;1.25;;;9.90;97.60;;;;;;5047663;28;20615;-89
2021/05/15 02:44:47;;;;;;;1.45;1.13;;;9.90;97.80;;;;;;5030620;28;20229;-91
2021/05/15 02:47:20;;;;;;;2.08;1.02;;;9.90;98.00;;;;;;5048007;28;20277;-90
2021/05/15 02:49:48;;;;;;;2.85;1.20;;;10.00;97.10;;;;;;5022762;28;20207;-90
2021/05/15 02:52:15;;;;;;;1.92;1.17;;;10.00;97.20;;;;;;5025230;28;20217;-90
2021/05/15 02:54:41;;;;;;;0.98;0.98;;;10.00;97.60;;;;;;5026866;28;20203;-89
2021/05/15 02:57:08;;;;;;;2.45;1.27;;;10.00;97.50;;;;;;5048014;28;20312;-90
2021/05/15 02:59:35;;;;;;;1.45;1.10;;;10.00;97.50;;;;;;5050290;28;20656;-92
2021/05/15 03:05:05;;;;;;;1.90;1.27;;;9.90;97.80;;;;;;5044174;28;20225;-90
2021/05/15 03:07:32;;;;;;;1.77;1.00;;;9.90;97.90;;;;;;5053572;28;20222;-90
2021/05/15 03:09:58;;;;;;;1.92;1.20;;;9.90;98.00;;;;;;5039231;28;20231;-90
2021/05/15 03:12:25;;;;;;;1.88;1.10;;;9.90;97.90;;;;;;5031605;28;20222;-90
2021/05/15 03:14:54;;;;;;;2.90;1.02;;;9.90;97.90;;;;;;5041356;28;20218;-89
2021/05/15 03:17:24;;;;;;;2.50;1.20;;;9.80;97.50;;;;;;5040494;28;20280;-90
2021/05/15 03:20:15;;;;;;;2.10;1.00;;;9.80;97.80;;;;;;5040475;28;20190;-90
2021/05/15 03:22:41;;;;;;;1.27;1.02;;;9.60;98.00;;;;;;5039816;28;20224;-91
2021/05/15 03:25:09;;;;;;;1.10;1.00;;;9.70;98.70;;;;;;5043110;28;20323;-90
2021/05/15 03:27:36;;;;;;;0.95;0.95;;;9.70;98.60;;;;;;5028076;28;20234;-92
2021/05/15 03:30:03;;;;;;;1.05;1.00;;;9.70;98.70;;;;;;5027975;28;20232;-90
2021/05/15 03:32:30;;;;;;;1.67;1.05;;;9.80;98.90;;;;;;5049378;28;20244;-88
2021/05/15 03:34:57;;;;;;;1.70;1.00;;;9.80;98.70;;;;;;5051367;28;20244;-89
2021/05/15 03:37:23;;;;;;;0.98;0.88;;;9.80;98.70;;;;;;5027057;28;20239;-90
2021/05/15 03:39:50;;;;;;;1.13;1.02;;;9.90;98.30;;;;;;5044763;28;20203;-90
2021/05/15 03:42:16;;;;;;;1.60;1.23;;;9.90;97.90;;;;;;5043660;28;20227;-91
2021/05/15 03:44:42;;;;;;;1.55;1.30;;;9.90;98.00;;;;;;5043852;28;20222;-89
2021/05/15 03:47:09;;;;;;;1.98;1.15;;;9.90;98.30;;;;;;5044588;28;20230;-90
2021/05/15 03:49:36;;;;;;;1.65;1.10;;;9.90;98.50;;;;;;5041912;28;20199;-90
2021/05/15 03:52:03;;;;;;;3.05;1.13;;;9.90;98.30;;;;;;5042578;28;20226;-90
2021/05/15 03:54:29;;;;;;;1.70;1.05;;;10.00;97.60;;;;;;5051501;28;20198;-91
2021/05/15 03:56:56;;;;;;;2.75;0.90;;;9.90;97.60;;;;;;5038931;28;20221;-89
2021/05/15 03:59:23;;;;;;;1.63;0.98;;;9.90;97.80;;;;;;5052821;28;20198;-90
2021/05/15 04:01:49;;;;;;;1.73;0.90;;;9.90;97.70;;;;;;5038514;28;20234;-90
2021/05/15 04:04:16;;;;;;;1.30;0.90;;;9.90;97.40;;;;;;5042770;28;20572;-91
2021/05/15 04:06:43;;;;;;;1.23;1.00;;;9.90;97.40;;;;;;5043314;28;20313;-90
2021/05/15 04:09:10;;;;;;;1.80;1.10;;;9.90;97.40;;;;;;5041741;28;20716;-91
2021/05/15 04:11:38;;;;;;;1.00;0.82;;;9.90;97.70;;;;;;5041270;28;20309;-90
2021/05/15 04:14:22;;;;;;;1.27;0.90;;;9.90;97.60;;;;;;5042871;28;20246;-90
2021/05/15 04:17:01;;;;;;;1.00;0.90;;;9.90;97.70;;;;;;5054598;28;20313;-91
2021/05/15 04:19:28;;;;;;;1.42;1.00;;;9.90;97.70;;;;;;5037800;28;20199;-89
2021/05/15 04:21:56;;;;;;;1.70;0.90;;;9.80;97.70;;;;;;5047583;28;20245;-89
2021/05/15 04:24:54;;;;;;;0.80;0.80;;;9.80;98.10;;;;;;5045311;28;20221;-92
2021/05/15 04:30:11;;;;;;;1.15;0.73;;;9.90;97.60;;;;;;5031892;28;20202;-89
2021/05/15 04:32:42;;;;;;;1.08;0.90;;;10.00;97.40;;;;;;5045892;28;20216;-89
2021/05/15 04:39:07;;;;;;;1.20;0.80;;;10.10;97.00;;;;;;5047460;28;20241;-89
2021/05/15 04:41:34;;;;;;;1.55;1.00;;;10.20;96.00;;;;;;5034061;28;20230;-90
2021/05/15 04:44:00;;;;;;;0.77;0.77;;;10.20;96.00;;;;;;5029728;28;20219;-89
2021/05/15 04:46:27;;;;;;;1.65;0.93;;;10.30;96.00;;;;;;5041859;28;20248;-90
2021/05/15 04:52:26;;;;;;;0.63;0.63;;;10.30;95.80;;;;;;5047256;28;20204;-90
2021/05/15 04:57:49;;;;;;;1.38;0.90;;;10.30;95.80;;;;;;5046782;28;20229;-89
2021/05/15 05:03:40;;;;;;;2.13;0.82;;;10.30;96.20;;;;;;5025343;28;20195;-90
2021/05/15 06:04:41;;;;;;;1.35;0.90;;;11.90;91.30;;;;;;5022391;28;20230;-90
2021/05/15 06:07:08;;;;;;;2.63;1.13;;;12.00;90.70;;;;;;5018166;28;20230;-90
2021/05/15 06:09:47;;;;;;;1.02;0.90;;;12.10;91.10;;;;;;5008919;28;20200;-92
2021/05/15 06:12:14;;;;;;;0.95;0.82;;;11.90;91.20;;;;;;5024637;28;20237;-91
2021/05/15 06:14:40;;;;;;;1.08;0.85;;;12.00;91.60;;;;;;5023965;28;20272;-90
2021/05/15 06:17:07;;;;;;;0.93;0.80;;;12.10;91.50;;;;;;5043429;28;20223;-90
2021/05/15 06:22:15;;;;;;;1.02;1.00;;;12.20;90.40;;;;;;5028560;28;20233;-91
2021/05/15 06:24:42;;;;;;;1.63;0.85;;;12.00;90.80;;;;;;5009751;28;20223;-91
2021/05/15 06:27:08;;;;;;;1.35;0.82;;;11.90;90.70;;;;;;5029010;28;20245;-90
2021/05/15 06:29:35;;;;;;;1.85;1.05;;;12.00;90.70;;;;;;5024164;28;20202;-90
2021/05/15 06:32:02;;;;;;;0.90;0.90;;;12.30;90.80;;;;;;5045625;28;20229;-90
2021/05/15 06:34:28;;;;;;;0.85;0.77;;;12.50;90.40;;;;;;5047835;28;20202;-90
2021/05/15 06:36:56;;;;;;;1.10;1.00;;;12.50;88.40;;;;;;5041545;28;20277;-90
2021/05/15 07:19:01;;;;;;;0.70;0.70;;;15.30;64.50;;;;;;5782409;23;6886249;-94
2021/05/15 07:21:27;;;;;;;1.23;1.10;;;14.90;63.50;;;;;;6007173;23;20204;-91
2021/05/15 07:23:54;;;;;;;1.20;1.10;;;15.50;63.00;;;;;;5938388;24;20174;-89
2021/05/15 07:26:28;;;;;;;1.30;0.90;;;15.40;57.70;;;;;;5934091;24;20618;-93
2021/05/15 07:28:54;;;;;;;1.27;1.00;;;15.50;59.80;;;;;;5934388;24;20192;-88
2021/05/15 07:31:21;;;;;;;1.67;1.10;;;15.40;58.40;;;;;;5940450;24;20240;-90
2021/05/15 07:33:47;;;;;;;2.53;1.00;;;15.50;58.80;;;;;;5965471;24;20184;-93
2021/05/15 07:36:15;;;;;;;3.42;1.17;;;15.80;59.30;;;;;;5962004;24;20236;-92
2021/05/15 07:38:42;;;;;;;0.93;0.93;;;15.80;59.20;;;;;;5940542;24;20624;-91
2021/05/15 07:41:09;;;;;;;0.98;0.98;;;16.30;54.60;;;;;;5940606;24;20184;-92
2021/05/15 07:43:36;;;;;;;1.33;1.02;;;16.30;57.40;;;;;;5938664;24;20213;-90
2021/05/15 07:46:03;;;;;;;1.35;0.70;;;16.40;52.60;;;;;;5935411;24;20184;-93
2021/05/15 07:48:37;;;;;;;1.20;1.10;;;16.60;48.80;;;;;;5963786;24;20195;-93
2021/05/15 07:51:21;;;;;;;1.23;1.13;;;16.60;48.60;;;;;;5962551;24;20179;-88
2021/05/15 07:53:48;;;;;;;2.80;1.15;;;16.80;49.40;;;;;;5933118;24;20184;-90
2021/05/15 07:56:14;;;;;;;0.95;0.90;;;16.80;49.90;;;;;;5933571;24;20255;-91
2021/05/15 07:58:41;;;;;;;2.05;0.98;;;17.00;48.10;;;;;;5934613;24;20187;-91
2021/05/15 08:01:08;;;;;;;2.58;1.15;;;17.40;42.50;;;;;;5937723;24;20613;-88
2021/05/15 08:03:34;;;;;;;1.90;0.95;;;17.50;43.30;;;;;;5941348;24;20582;-92
2021/05/15 08:06:01;;;;;;;2.20;0.90;;;17.50;44.10;;;;;;5939824;24;20184;-88
2021/05/15 08:08:31;;;;;;;1.83;1.02;;;17.40;47.80;;;;;;5937507;24;20210;-90
2021/05/15 08:10:57;;;;;;;1.30;0.95;;;17.50;43.90;;;;;;5939154;24;20216;-89
2021/05/15 08:13:24;;;;;;;1.20;1.00;;;17.00;41.10;;;;;;5931141;24;20577;-91
2021/05/15 08:15:50;;;;;;;1.73;0.98;;;16.70;44.70;;;;;;5902089;24;20181;-91
2021/05/15 08:18:17;;;;;;;1.27;0.98;;;16.10;42.50;;;;;;5899570;24;20216;-91
2021/05/15 08:20:53;;;;;;;1.30;0.88;;;16.20;44.50;;;;;;5902087;24;20181;-92
2021/05/15 08:23:20;;;;;;;1.27;0.90;;;16.20;43.30;;;;;;5901518;24;20223;-91
2021/05/15 08:25:47;;;;;;;1.67;1.35;;;16.20;44.20;;;;;;5905418;24;20177;-91
2021/05/15 08:28:16;;;;;;;3.72;1.15;;;16.80;45.00;;;;;;5903036;24;20285;-89
2021/05/15 08:30:44;;;;;;;1.38;0.90;;;17.20;41.90;;;;;;5902795;24;20185;-90
2021/05/15 08:33:11;;;;;;;0.80;0.80;;;17.50;40.20;;;;;;5905764;24;20217;-92
2021/05/15 08:35:38;;;;;;;1.05;0.98;;;18.30;38.30;;;;;;5910506;24;20182;-91
2021/05/15 08:38:06;;;;;;;1.00;0.85;;;18.70;36.60;;;;;;5904341;24;20541;-91
2021/05/15 08:40:33;;;;;;;1.33;1.00;;;19.10;34.40;;;;;;5905783;24;20256;-91
2021/05/15 08:43:02;;;;;;;1.13;1.02;;;19.40;33.40;;;;;;5904687;24;20205;-89
2021/05/15 08:45:28;;;;;;;0.88;0.88;;;20.10;32.20;;;;;;5902401;24;20180;-90
2021/05/15 08:47:56;;;;;;;0.90;0.90;;;20.50;31.20;;;;;;5897388;24;20717;-91
2021/05/15 08:50:27;;;;;;;4.30;1.10;;;21.40;29.00;;;;;;5898286;24;20513;-92
2021/05/15 08:52:56;;;;;;;0.70;0.70;;;21.50;30.50;;;;;;5900325;24;20541;-89
2021/05/15 08:55:24;;;;;;;1.15;1.00;;;21.40;30.70;;;;;;5899529;24;20182;-89
2021/05/15 08:57:50;;;;;;;1.40;1.23;;;20.60;28.50;;;;;;5898053;24;20547;-90
2021/05/15 09:00:22;;;;;;;1.33;1.20;;;21.50;27.20;;;;;;5897113;24;20224;-87
2021/05/15 09:02:51;;;;;;;1.40;1.27;;;22.20;26.90;;;;;;5893152;24;20224;-87
2021/05/15 09:05:25;;;;;;;2.25;0.80;;;22.40;26.70;;;;;;5900036;24;20177;-90
2021/05/15 09:10:47;;;;;;;2.72;1.10;;;23.20;23.00;;;;;;5899722;24;20671;-91
2021/05/15 09:13:17;;;;;;;1.50;1.10;;;24.20;23.80;;;;;;5897257;24;20708;-91
2021/05/15 09:15:49;;;;;;;1.25;1.02;;;23.50;24.40;;;;;;5899038;24;20188;-89
2021/05/15 09:18:17;;;;;;;2.25;1.40;;;22.80;24.80;;;;;;5898848;24;20234;-86
2021/05/15 09:20:44;;;;;;;1.95;1.10;;;21.90;25.70;;;;;;5898269;24;20174;-89
2021/05/15 09:23:19;;;;;;;1.27;0.90;;;20.60;26.50;;;;;;5922116;24;20220;-90
2021/05/15 09:25:58;;;;;;;1.77;1.15;;;20.70;27.40;;;;;;5927752;24;20173;-87
2021/05/15 09:28:37;;;;;;;1.00;0.93;;;21.40;28.00;;;;;;5930201;24;20212;-88
2021/05/15 09:31:28;;;;;;;1.20;1.10;;;21.40;25.60;;;;;;5926656;24;20219;-87
2021/05/15 09:33:56;;;;;;;0.80;0.80;;;21.80;25.60;;;;;;5907207;24;20200;-89
2021/05/15 09:36:25;;;;;;;4.25;1.33;;;22.40;24.60;;;;;;5925808;24;20177;-89
2021/05/15 09:39:11;;;;;;;1.30;1.20;;;22.10;24.50;;;;;;5926704;24;20624;-89
2021/05/15 09:44:23;;;;;;;1.23;1.13;;;21.80;24.30;;;;;;5926901;24;20207;-89
2021/05/15 09:46:51;;;;;;;23.10;20.80;;;21.20;24.70;;;;;;5904685;24;20219;-90
2021/05/15 09:49:22;;;;;;;16.15;14.60;;;20.20;26.50;;;;;;5933045;24;20233;-92
2021/05/15 09:51:55;;;;;;;6.18;3.85;;;19.80;28.20;;;;;;5904765;24;20212;-91
2021/05/15 09:54:43;;;;;;;10.00;9.02;;;19.00;29.20;;;;;;5926448;24;20195;-91
2021/05/15 09:57:12;;;;;;;1.92;1.73;;;18.50;32.00;;;;;;5901770;24;20867;-91
2021/05/15 10:09:54;;;;;;;12.45;4.82;;;17.70;34.40;;;;;;5935096;24;20587;-93
2021/05/15 10:12:22;;;;;;;61.00;40.60;;;17.90;34.40;;;;;;5929892;24;20216;-92
2021/05/15 10:14:50;;;;;;;57.85;39.80;;;17.80;36.80;;;;;;5928463;24;20232;-91
2021/05/15 10:17:16;;;;;;;16.63;10.52;;;17.90;35.40;;;;;;5928013;24;20208;-91
2021/05/15 10:19:43;;;;;;;14.25;11.60;;;18.00;31.20;;;;;;5930260;24;20191;-90
2021/05/15 10:22:11;;;;;;;2.63;2.28;;;18.30;31.70;;;;;;5902028;24;20243;-91
2021/05/15 10:24:38;;;;;;;8.25;7.10;;;18.30;30.60;;;;;;5926923;24;20587;-91
2021/05/15 10:27:07;;;;;;;7.57;4.78;;;18.80;31.00;;;;;;5924455;24;20265;-90
2021/05/15 10:32:25;;;;;;;1.63;0.98;;;19.10;31.30;;;;;;5929214;24;20212;-92
2021/05/15 10:34:59;;;;;;;7.78;3.85;;;19.10;31.30;;;;;;5926870;24;20181;-91
2021/05/15 10:37:29;;;;;;;4.30;3.63;;;19.80;29.60;;;;;;5934159;24;20208;-88
2021/05/15 10:40:14;;;;;;;0.82;0.80;;;20.20;28.50;;;;;;5905069;24;20177;-87
2021/05/15 10:42:41;;;;;;;1.00;0.90;;;19.40;27.40;;;;;;5915643;24;20212;-86
2021/05/15 10:45:08;;;;;;;1.08;0.90;;;19.50;29.10;;;;;;5913490;24;20171;-88
2021/05/15 10:47:40;;;;;;;0.77;0.77;;;19.30;30.10;;;;;;5934633;24;20514;-89
2021/05/15 10:53:54;;;;;;;1.10;0.80;;;18.50;30.80;;;;;;5933317;24;20211;-90
2021/05/15 10:59:58;;;;;;;0.75;0.70;;;17.80;33.80;;;;;;5930437;24;20218;-91
2021/05/15 11:02:31;;;;;;;5.03;2.97;;;17.90;30.30;;;;;;5915658;24;20720;-90
2021/05/15 11:05:03;;;;;;;5.40;3.53;;;17.50;32.40;;;;;;5927826;24;20485;-91
2021/05/15 11:07:34;;;;;;;2.72;2.17;;;17.60;30.00;;;;;;5933466;24;20267;-91
2021/05/15 11:10:04;;;;;;;5.57;3.65;;;17.00;32.60;;;;;;5934405;24;20226;-88
2021/05/15 11:15:29;;;;;;;8.10;6.65;;;17.70;33.20;;;;;;5936233;24;20236;-88
2021/05/15 11:21:34;;;;;;;2.20;1.05;;;18.20;31.50;;;;;;5937588;24;20183;-86
2021/05/15 11:24:01;;;;;;;0.70;0.70;;;18.90;31.10;;;;;;5936640;24;20185;-85
2021/05/15 11:26:50;;;;;;;1.98;1.23;;;19.10;29.50;;;;;;5934446;24;20200;-88
2021/05/15 11:29:16;;;;;;;2.20;1.52;;;19.30;31.50;;;;;;5934867;24;20208;-87
2021/05/15 11:31:43;;;;;;;1.48;0.90;;;19.50;31.70;;;;;;5932140;24;20254;-90
2021/05/15 11:34:12;;;;;;;29.20;7.25;;;19.60;31.70;;;;;;5905533;24;20165;-91
2021/05/15 11:43:29;;;;;;;1.23;0.90;;;20.00;27.60;;;;;;5931309;24;20218;-87
2021/05/15 11:45:56;;;;;;;0.80;0.80;;;20.20;32.20;;;;;;5932997;24;20165;-87
2021/05/15 11:48:25;;;;;;;1.00;0.80;;;20.30;26.30;;;;;;5930785;24;20287;-92
2021/05/15 11:51:02;;;;;;;1.20;1.05;;;19.90;26.70;;;;;;5907878;24;20185;-89
2021/05/15 11:53:29;;;;;;;0.95;0.70;;;18.80;30.00;;;;;;5924862;24;20288;-89
2021/05/15 11:55:56;;;;;;;1.95;1.10;;;18.80;30.30;;;;;;5908671;24;20169;-88
2021/05/15 11:58:50;;;;;;;1.60;0.73;;;18.60;30.90;;;;;;5930929;24;20208;-90
2021/05/15 12:01:17;;;;;;;1.80;1.40;;;18.50;30.80;;;;;;5934708;24;20192;-87
2021/05/15 12:03:46;;;;;;;1.48;1.00;;;18.90;29.20;;;;;;5933012;24;20177;-90
2021/05/15 12:06:19;;;;;;;1.13;1.02;;;18.80;28.00;;;;;;5928284;24;20165;-90
2021/05/15 12:08:46;;;;;;;3.08;1.00;;;18.80;28.50;;;;;;5928583;24;20208;-90
2021/05/15 12:13:55;;;;;;;0.85;0.85;;;18.60;32.00;;;;;;5926963;24;20200;-90
2021/05/15 12:16:22;;;;;;;1.02;0.93;;;18.20;33.00;;;;;;5935515;24;20244;-91
2021/05/15 12:18:50;;;;;;;2.17;0.80;;;17.70;30.10;;;;;;5906078;24;20185;-92
2021/05/15 12:21:16;;;;;;;0.88;0.88;;;18.10;31.70;;;;;;5909309;24;20199;-92
2021/05/15 12:23:45;;;;;;;1.60;0.90;;;17.70;32.20;;;;;;5905655;24;20208;-90
2021/05/15 12:26:11;;;;;;;1.00;0.77;;;18.10;30.50;;;;;;5934004;24;20180;-91
2021/05/15 12:28:43;;;;;;;0.90;0.73;;;18.10;31.60;;;;;;5935733;24;20175;-90
2021/05/15 12:31:30;;;;;;;1.13;0.70;;;18.60;30.90;;;;;;5934870;24;20180;-90
2021/05/15 12:33:58;;;;;;;0.90;0.65;;;18.60;30.90;;;;;;5932156;24;20609;-93
2021/05/15 12:36:31;;;;;;;1.65;1.00;;;18.20;30.60;;;;;;5931563;24;20545;-92
2021/05/15 12:38:58;;;;;;;1.15;0.90;;;18.20;30.60;;;;;;5929274;24;20234;-92
2021/05/15 12:41:33;;;;;;;1.02;0.80;;;18.20;30.40;;;;;;5928097;24;20245;-92
2021/05/15 12:44:05;;;;;;;1.08;0.70;;;18.40;28.00;;;;;;5930487;24;20173;-91
2021/05/15 12:46:36;;;;;;;0.60;0.60;;;17.90;30.30;;;;;;5931493;24;20534;-90
2021/05/15 12:49:06;;;;;;;0.82;0.70;;;17.80;28.10;;;;;;5929860;24;20509;-91
2021/05/15 12:51:34;;;;;;;0.70;0.70;;;17.40;29.90;;;;;;5930063;24;20201;-92
2021/05/15 12:54:12;;;;;;;1.67;1.20;;;17.20;29.70;;;;;;5927697;24;20469;-88
2021/05/15 12:56:40;;;;;;;1.45;1.10;;;17.40;29.90;;;;;;5929763;24;20211;-89
2021/05/15 12:59:07;;;;;;;2.15;0.82;;;17.40;29.90;;;;;;5930013;24;20575;-94
2021/05/15 13:01:35;;;;;;;1.10;1.00;;;17.30;29.80;;;;;;5929299;24;20198;-91
2021/05/15 13:04:02;;;;;;;0.88;0.70;;;17.40;29.90;;;;;;5931083;24;20648;-92
2021/05/15 13:06:35;;;;;;;1.00;1.00;;;17.30;29.80;;;;;;5931166;24;20603;-90
2021/05/15 13:09:02;;;;;;;2.78;1.50;;;16.90;29.50;;;;;;5928924;24;20175;-92
2021/05/15 13:11:33;;;;;;;0.98;0.98;;;16.60;30.50;;;;;;5931605;24;20215;-91
2021/05/15 13:14:00;;;;;;;1.23;0.73;;;16.40;31.10;;;;;;5934216;24;20200;-92
2021/05/15 13:16:27;;;;;;;1.83;1.00;;;16.40;32.30;;;;;;5924628;24;20517;-91
2021/05/15 13:19:07;;;;;;;1.10;0.82;;;16.80;30.60;;;;;;5924862;24;20310;-95
2021/05/15 13:22:47;;;;;;;4.07;0.80;;;17.10;29.60;;;;;;5921537;24;20291;-94
2021/05/15 13:25:21;;;;;;;1.20;0.60;;;17.40;32.10;;;;;;5939791;24;20232;-94
2021/05/15 13:41:29;;;;;;;1.55;1.00;;;19.60;29.20;;;;;;5746649;24;20264;-90
2021/05/15 13:44:11;;;;;;;2.55;1.70;;;19.10;31.30;;;;;;5745170;25;20230;-88
2021/05/15 13:46:38;;;;;;;1.00;0.90;;;19.30;31.50;;;;;;5926436;24;20712;-91
2021/05/15 13:49:05;;;;;;;3.92;1.00;;;19.40;29.50;;;;;;5904818;24;20185;-91
2021/05/15 13:51:32;;;;;;;1.20;0.73;;;19.50;31.60;;;;;;5917203;24;20212;-90
2021/05/15 13:53:59;;;;;;;4.18;0.70;;;19.90;28.20;;;;;;5931970;24;20191;-90
2021/05/15 13:59:08;;;;;;;2.17;0.80;;;18.50;31.10;;;;;;5913564;24;20232;-90
2021/05/15 14:01:34;;;;;;;1.33;0.88;;;18.60;30.90;;;;;;5937461;24;20176;-93
2021/05/15 14:04:01;;;;;;;2.72;0.63;;;18.00;30.90;;;;;;5932184;24;20271;-94
2021/05/15 14:09:10;;;;;;;1.42;0.88;;;17.80;32.20;;;;;;5871035;24;20188;-94
2021/05/15 14:11:55;;;;;;;1.05;0.80;;;18.40;30.70;;;;;;5910759;24;20627;-91
2021/05/15 14:14:22;;;;;;;0.60;0.57;;;18.70;31.00;;;;;;5906789;24;20267;-91
2021/05/15 14:16:48;;;;;;;1.85;0.70;;;18.80;31.00;;;;;;5931106;24;20201;-93
2021/05/15 14:19:15;;;;;;;1.58;0.70;;;18.60;30.90;;;;;;5905219;24;20176;-93
2021/05/15 14:21:41;;;;;;;1.98;0.70;;;18.70;31.00;;;;;;5905262;24;20205;-94
2021/05/15 14:24:08;;;;;;;2.17;0.70;;;18.60;30.90;;;;;;5928875;24;20512;-92
2021/05/15 14:26:35;;;;;;;0.68;0.68;;;18.50;30.80;;;;;;5928333;24;20208;-92
2021/05/15 14:29:01;;;;;;;1.13;0.80;;;18.40;30.70;;;;;;5928360;24;20321;-92
2021/05/15 14:31:28;;;;;;;1.08;0.98;;;18.30;30.70;;;;;;5902699;24;21181;-91
2021/05/15 14:33:57;;;;;;;0.85;0.82;;;18.40;30.70;;;;;;5927551;24;20227;-92
2021/05/15 14:39:28;;;;;;;5.70;3.83;;;18.50;30.80;;;;;;5930115;24;20252;-92
2021/05/15 14:41:54;;;;;;;1.05;0.80;;;18.20;30.60;;;;;;5933423;24;20292;-91
2021/05/15 14:44:21;;;;;;;0.80;0.80;;;18.10;31.40;;;;;;5928368;24;20546;-91
2021/05/15 14:46:51;;;;;;;1.20;0.90;;;18.20;30.60;;;;;;5928837;24;20177;-93
2021/05/15 14:49:38;;;;;;;1.10;0.68;;;18.30;30.70;;;;;;5929763;24;20608;-92
2021/05/15 14:52:12;;;;;;;2.05;0.93;;;18.20;31.10;;;;;;5929600;24;20240;-90
2021/05/15 14:54:38;;;;;;;2.05;1.00;;;18.10;31.40;;;;;;5905639;24;20589;-90
2021/05/15 14:57:06;;;;;;;1.63;1.38;;;17.70;32.80;;;;;;5932728;24;20598;-89
2021/05/15 14:59:32;;;;;;;0.90;0.90;;;17.50;34.00;;;;;;5933227;24;20188;-90
2021/05/15 15:02:00;;;;;;;1.65;0.70;;;17.40;34.40;;;;;;5907818;24;20221;-91
2021/05/15 15:04:28;;;;;;;1.15;1.00;;;17.10;34.80;;;;;;5940377;24;20209;-94
2021/05/15 15:07:18;;;;;;;1.00;0.90;;;17.20;33.70;;;;;;5907110;24;20208;-92
2021/05/15 15:23:58;;;;;;;1.38;0.80;;;17.80;34.80;;;;;;5843697;24;20731;-93
2021/05/15 15:26:25;;;;;;;1.23;0.70;;;17.20;33.40;;;;;;5930378;24;20541;-91
2021/05/15 15:29:10;;;;;;;2.30;1.05;;;17.10;34.10;;;;;;5936231;24;20252;-93
2021/05/15 15:31:36;;;;;;;0.70;0.70;;;17.10;34.50;;;;;;5936505;24;20200;-89
2021/05/15 15:34:17;;;;;;;1.27;0.80;;;17.30;33.80;;;;;;5910126;24;20645;-90
2021/05/15 15:36:44;;;;;;;1.17;0.63;;;17.40;33.90;;;;;;5909976;24;20237;-91
2021/05/15 15:39:10;;;;;;;1.77;1.15;;;17.30;33.20;;;;;;5910488;24;20169;-89
2021/05/15 15:42:02;;;;;;;1.08;0.98;;;17.30;33.60;;;;;;5938952;24;20231;-88
2021/05/15 15:56:07;;;;;;;3.05;0.70;;;16.80;35.40;;;;;;5936219;24;20169;-90
2021/05/15 16:05:15;;;;;;;2.13;1.30;;;17.00;35.80;;;;;;5875564;24;20675;-92
2021/05/15 16:07:42;;;;;;;1.45;1.30;;;17.10;35.90;;;;;;5938040;24;20204;-90
2021/05/15 16:10:10;;;;;;;1.45;1.23;;;17.20;35.80;;;;;;5933447;24;20505;-91
2021/05/15 16:23:27;;;;;;;1.85;0.70;;;16.50;40.60;;;;;;5981237;23;20203;-90
2021/05/15 16:25:53;;;;;;;3.03;0.80;;;16.40;42.20;;;;;;5987233;24;20614;-92
2021/05/15 16:28:32;;;;;;;1.13;0.98;;;16.40;42.40;;;;;;5988978;23;20187;-92
2021/05/15 16:30:59;;;;;;;0.63;0.63;;;16.20;44.00;;;;;;5989016;24;20198;-88
2021/05/15 16:33:32;;;;;;;1.85;0.85;;;16.00;46.10;;;;;;5990071;24;20275;-88
2021/05/15 16:35:58;;;;;;;0.90;0.90;;;15.90;46.90;;;;;;5985307;24;20243;-89
2021/05/15 16:38:26;;;;;;;2.33;0.95;;;15.70;46.90;;;;;;5985656;24;20227;-90
2021/05/15 16:40:53;;;;;;;1.77;1.00;;;15.60;47.60;;;;;;5962419;24;20262;-93
2021/05/15 16:43:20;;;;;;;2.88;0.93;;;15.70;48.50;;;;;;5985429;24;20191;-92
2021/05/15 16:45:48;;;;;;;0.90;0.90;;;15.80;45.10;;;;;;5985330;24;20202;-92
2021/05/15 16:48:33;;;;;;;1.70;1.10;;;15.80;46.10;;;;;;5989475;24;20483;-91
2021/05/15 16:51:05;;;;;;;1.23;1.00;;;15.80;45.50;;;;;;5987638;24;20183;-91
2021/05/15 16:53:33;;;;;;;1.83;0.80;;;15.80;42.30;;;;;;5986145;24;20191;-93
2021/05/15 16:56:02;;;;;;;1.42;1.10;;;15.80;41.90;;;;;;5985010;24;20651;-92
2021/05/15 16:58:29;;;;;;;2.00;1.00;;;15.80;41.50;;;;;;5984576;24;20605;-91
2021/05/15 17:00:56;;;;;;;1.38;1.00;;;15.80;41.40;;;;;;5983072;24;20616;-92
2021/05/15 17:03:22;;;;;;;2.15;1.00;;;15.80;41.10;;;;;;5984899;24;20258;-89
2021/05/15 17:05:49;;;;;;;1.17;1.05;;;16.00;40.50;;;;;;5983449;24;20189;-93
2021/05/15 17:08:15;;;;;;;1.17;0.75;;;16.10;39.60;;;;;;5985898;24;20211;-88
2021/05/15 17:10:45;;;;;;;1.52;1.30;;;16.00;40.70;;;;;;5984113;24;20261;-90
2021/05/15 17:13:11;;;;;;;1.45;1.30;;;15.90;41.00;;;;;;5981763;24;20746;-89
2021/05/15 17:15:38;;;;;;;1.00;0.90;;;15.80;41.60;;;;;;5932302;24;20240;-92
2021/05/15 17:18:05;;;;;;;2.20;1.05;;;15.70;42.80;;;;;;5960419;24;20264;-88
2021/05/15 17:20:32;;;;;;;1.70;1.05;;;15.50;42.60;;;;;;5960457;24;20176;-93
2021/05/15 17:22:59;;;;;;;1.17;0.70;;;15.50;42.90;;;;;;5956814;24;20585;-93
2021/05/15 17:28:54;;;;;;;1.75;1.08;;;15.30;42.50;;;;;;5958145;24;20144;-92
2021/05/15 17:31:20;;;;;;;1.23;1.05;;;15.30;44.10;;;;;;5957227;24;20640;-94
2021/05/15 17:33:47;;;;;;;1.65;0.80;;;15.20;43.50;;;;;;5961504;24;20266;-91
2021/05/15 17:36:42;;;;;;;1.88;1.10;;;15.10;44.60;;;;;;5961099;24;20207;-89
2021/05/15 17:39:11;;;;;;;1.83;1.05;;;15.10;43.50;;;;;;5964280;24;20243;-89
2021/05/15 17:42:00;;;;;;;1.00;0.90;;;15.10;44.10;;;;;;5962236;24;20204;-90
2021/05/15 17:44:27;;;;;;;1.60;0.90;;;15.20;44.40;;;;;;5963972;24;20161;-88